createdAt,value
2022-10-17T00:01:24.518Z,22.70
2022-10-17T00:03:51.098Z,22.70
2022-10-17T00:06:17.828Z,22.70
2022-10-17T00:08:44.491Z,22.70
2022-10-17T00:11:23.055Z,22.69
2022-10-17T00:13:51.406Z,22.69
2022-10-17T00:16:37.572Z,22.67
2022-10-17T00:19:05.890Z,22.65
2022-10-17T00:21:33.356Z,22.67
2022-10-17T00:24:00.835Z,22.39
2022-10-17T00:26:29.616Z,22.67
2022-10-17T00:28:57.112Z,22.67
2022-10-17T00:31:25.017Z,22.68
2022-10-17T00:33:52.608Z,22.67
2022-10-17T00:36:22.233Z,22.67
2022-10-17T00:38:52.864Z,22.67
2022-10-17T00:41:21.459Z,22.67
2022-10-17T00:43:58.180Z,22.67
2022-10-17T00:46:27.849Z,22.64
2022-10-17T00:48:56.308Z,22.59
2022-10-17T00:51:30.077Z,22.64
2022-10-17T00:53:56.672Z,22.68
2022-10-17T00:56:23.280Z,22.67
2022-10-17T00:58:50.303Z,22.67
2022-10-17T01:01:17.149Z,22.67
2022-10-17T01:03:44.045Z,22.58
2022-10-17T01:06:10.624Z,22.66
2022-10-17T01:08:38.096Z,22.66
2022-10-17T01:13:32.980Z,22.65
2022-10-17T01:16:05.756Z,22.64
2022-10-17T01:18:56.668Z,22.64
2022-10-17T01:21:56.652Z,22.63
2022-10-17T01:24:53.152Z,22.63
2022-10-17T01:27:51.949Z,22.59
2022-10-17T01:30:44.388Z,22.63
2022-10-17T01:33:17.520Z,22.56
2022-10-17T01:35:44.600Z,22.63
2022-10-17T01:38:17.113Z,22.63
2022-10-17T01:41:10.441Z,22.63
2022-10-17T01:43:44.557Z,22.62
2022-10-17T01:46:35.972Z,22.58
2022-10-17T01:49:05.764Z,22.62
2022-10-17T01:52:08.807Z,22.62
2022-10-17T01:54:53.861Z,22.63
2022-10-17T01:57:44.894Z,22.63
2022-10-17T02:00:17.812Z,22.62
2022-10-17T02:02:46.917Z,22.63
2022-10-17T02:05:19.262Z,22.63
2022-10-17T02:07:45.836Z,22.63
2022-10-17T02:10:25.089Z,22.62
2022-10-17T02:12:59.889Z,22.63
2022-10-17T02:15:39.675Z,22.63
2022-10-17T02:18:21.204Z,22.62
2022-10-17T02:21:02.968Z,22.62
2022-10-17T02:23:42.313Z,22.61
2022-10-17T02:26:33.924Z,22.61
2022-10-17T02:29:18.673Z,22.60
2022-10-17T02:32:06.863Z,22.59
2022-10-17T02:34:47.545Z,22.59
2022-10-17T02:37:19.344Z,22.58
2022-10-17T02:39:47.558Z,22.58
2022-10-17T02:42:15.100Z,22.58
2022-10-17T02:44:44.560Z,22.59
2022-10-17T02:47:19.017Z,22.58
2022-10-17T02:49:52.007Z,22.58
2022-10-17T02:52:51.832Z,22.58
2022-10-17T02:55:23.188Z,22.56
2022-10-17T02:57:54.210Z,22.58
2022-10-17T03:00:24.838Z,22.57
2022-10-17T03:02:53.151Z,22.58
2022-10-17T03:05:28.633Z,22.57
2022-10-17T03:07:55.843Z,22.55
2022-10-17T03:10:24.249Z,22.56
2022-10-17T03:12:50.991Z,22.56
2022-10-17T03:15:19.261Z,22.56
2022-10-17T03:20:18.476Z,22.56
2022-10-17T03:22:45.322Z,22.56
2022-10-17T03:25:11.883Z,22.56
2022-10-17T03:27:38.476Z,22.27
2022-10-17T03:30:05.608Z,22.55
2022-10-17T03:32:34.062Z,22.55
2022-10-17T03:35:01.083Z,22.55
2022-10-17T03:37:27.919Z,22.54
2022-10-17T03:39:55.080Z,22.54
2022-10-17T03:42:21.651Z,22.54
2022-10-17T03:44:48.600Z,22.54
2022-10-17T03:47:15.150Z,22.54
2022-10-17T03:49:42.010Z,22.54
2022-10-17T03:52:12.673Z,22.55
2022-10-17T03:54:39.880Z,22.55
2022-10-17T03:57:06.820Z,22.55
2022-10-17T03:59:33.481Z,22.56
2022-10-17T04:02:07.947Z,22.55
2022-10-17T04:04:35.380Z,22.48
2022-10-17T04:07:03.432Z,22.55
2022-10-17T04:09:30.397Z,22.55
2022-10-17T04:12:05.608Z,22.54
2022-10-17T04:14:33.450Z,22.55
2022-10-17T04:17:01.125Z,22.55
2022-10-17T04:19:28.704Z,22.54
2022-10-17T04:21:55.651Z,22.54
2022-10-17T04:24:22.622Z,22.55
2022-10-17T04:27:03.085Z,22.54
2022-10-17T04:29:32.577Z,22.54
2022-10-17T04:32:19.385Z,22.54
2022-10-17T04:34:50.180Z,22.54
2022-10-17T04:37:18.043Z,22.42
2022-10-17T04:39:46.303Z,22.53
2022-10-17T04:42:12.957Z,22.53
2022-10-17T04:44:40.674Z,22.53
2022-10-17T04:47:08.398Z,22.53
2022-10-17T04:49:35.023Z,22.53
2022-10-17T04:52:10.161Z,22.52
2022-10-17T04:54:39.773Z,22.52
2022-10-17T04:57:09.214Z,22.50
2022-10-17T04:59:36.063Z,22.49
2022-10-17T05:02:16.884Z,22.47
2022-10-17T05:04:45.008Z,22.45
2022-10-17T05:07:12.476Z,22.43
2022-10-17T05:09:47.512Z,22.42
2022-10-17T05:12:15.788Z,22.41
2022-10-17T05:14:44.767Z,22.38
2022-10-17T05:17:14.054Z,22.37
2022-10-17T05:19:40.600Z,22.36
2022-10-17T05:22:08.075Z,22.36
2022-10-17T05:24:34.685Z,22.36
2022-10-17T05:27:01.276Z,22.34
2022-10-17T05:29:28.013Z,22.34
2022-10-17T05:32:03.360Z,22.34
2022-10-17T05:34:29.899Z,22.33
2022-10-17T05:36:57.494Z,22.32
2022-10-17T05:39:24.590Z,22.32
2022-10-17T05:41:52.443Z,22.30
2022-10-17T05:44:19.144Z,22.30
2022-10-17T05:46:51.622Z,22.29
2022-10-17T05:49:31.972Z,22.30
2022-10-17T05:52:00.658Z,22.30
2022-10-17T05:54:30.873Z,22.30
2022-10-17T05:56:57.856Z,22.30
2022-10-17T05:59:28.835Z,22.29
2022-10-17T06:02:00.769Z,22.28
2022-10-17T06:04:27.832Z,22.28
2022-10-17T06:06:56.255Z,22.30
2022-10-17T06:09:23.704Z,22.29
2022-10-17T06:11:52.948Z,22.30
2022-10-17T06:14:20.108Z,22.29
2022-10-17T06:16:49.077Z,22.28
2022-10-17T06:19:16.198Z,22.30
2022-10-17T06:21:42.909Z,22.32
2022-10-17T06:24:13.209Z,22.32
2022-10-17T06:26:41.939Z,22.35
2022-10-17T06:29:10.753Z,22.35
2022-10-17T06:31:43.738Z,22.37
2022-10-17T06:34:10.528Z,22.38
2022-10-17T06:36:38.709Z,22.42
2022-10-17T06:41:35.552Z,22.46
2022-10-17T06:44:10.901Z,22.49
2022-10-17T06:46:56.263Z,22.52
2022-10-17T06:49:23.073Z,22.51
2022-10-17T06:52:28.231Z,22.57
2022-10-17T06:55:23.054Z,22.59
2022-10-17T06:58:12.704Z,22.63
2022-10-17T07:00:47.103Z,22.63
2022-10-17T07:03:16.217Z,22.63
2022-10-17T07:05:42.756Z,22.60
2022-10-17T07:08:09.528Z,22.58
2022-10-17T07:10:38.580Z,22.57
2022-10-17T07:13:07.199Z,22.57
2022-10-17T07:15:37.779Z,22.56
2022-10-17T07:18:05.734Z,22.55
2022-10-17T07:20:32.812Z,22.50
2022-10-17T07:22:59.437Z,22.57
2022-10-17T07:25:26.364Z,22.56
2022-10-17T07:27:57.352Z,22.56
2022-10-17T07:30:24.529Z,22.57
2022-10-17T07:33:00.488Z,22.57
2022-10-17T07:35:27.564Z,22.58
2022-10-17T07:37:54.776Z,22.58
2022-10-17T07:40:21.733Z,22.59
2022-10-17T07:42:48.258Z,22.58
2022-10-17T07:45:17.048Z,22.62
2022-10-17T07:47:44.310Z,22.63
2022-10-17T07:50:14.735Z,22.65
2022-10-17T07:52:43.171Z,22.66
2022-10-17T07:55:10.073Z,22.65
2022-10-17T07:57:36.650Z,22.68
2022-10-17T08:00:03.565Z,22.72
2022-10-17T08:02:39.470Z,22.74
2022-10-17T08:05:06.409Z,22.68
2022-10-17T08:07:32.979Z,22.76
2022-10-17T08:09:59.675Z,22.75
2022-10-17T08:12:26.362Z,22.73
2022-10-17T08:14:52.955Z,22.77
2022-10-17T08:17:19.523Z,22.78
2022-10-17T08:19:46.072Z,22.78
2022-10-17T08:22:12.552Z,22.80
2022-10-17T08:24:39.136Z,22.82
2022-10-17T08:27:11.278Z,22.83
2022-10-17T08:29:39.119Z,22.77
2022-10-17T08:32:09.072Z,22.86
2022-10-17T08:34:36.438Z,22.86
2022-10-17T08:37:03.061Z,22.87
2022-10-17T08:39:29.623Z,22.88
2022-10-17T08:42:05.307Z,22.88
2022-10-17T08:44:46.960Z,22.89
2022-10-17T08:47:27.262Z,22.89
2022-10-17T08:49:58.308Z,22.90
2022-10-17T08:52:42.689Z,22.85
2022-10-17T08:55:32.202Z,22.90
2022-10-17T08:57:59.013Z,22.91
2022-10-17T09:00:28.444Z,22.90
2022-10-17T09:03:07.118Z,22.90
2022-10-17T09:05:49.240Z,22.92
2022-10-17T09:08:15.690Z,22.93
2022-10-17T09:10:50.927Z,22.96
2022-10-17T09:13:38.294Z,23.00
2022-10-17T09:16:30.199Z,23.04
2022-10-17T09:19:05.085Z,23.04
2022-10-17T09:21:49.985Z,23.08
2022-10-17T09:24:25.325Z,23.10
2022-10-17T09:26:53.866Z,23.12
2022-10-17T09:29:23.764Z,23.14
2022-10-17T09:32:21.996Z,23.15
2022-10-17T09:34:48.896Z,23.18
2022-10-17T09:37:17.319Z,23.20
2022-10-17T09:39:44.685Z,23.20
2022-10-17T09:42:18.656Z,23.22
2022-10-17T09:44:58.167Z,23.23
2022-10-17T09:47:46.534Z,23.24
2022-10-17T09:50:24.982Z,23.23
2022-10-17T09:52:53.316Z,23.26
2022-10-17T09:55:47.849Z,23.26
2022-10-17T09:58:15.013Z,23.25
2022-10-17T10:00:44.437Z,23.27
2022-10-17T10:03:27.305Z,23.28
2022-10-17T10:06:18.028Z,23.28
2022-10-17T10:08:53.479Z,23.26
2022-10-17T10:11:26.027Z,23.30
2022-10-17T10:13:52.860Z,23.31
2022-10-17T10:16:30.598Z,23.32
2022-10-17T10:18:58.048Z,23.31
2022-10-17T10:21:27.005Z,23.33
2022-10-17T10:23:59.910Z,23.36
2022-10-17T10:26:32.226Z,23.32
2022-10-17T10:29:03.278Z,23.38
2022-10-17T10:31:40.341Z,23.39
2022-10-17T10:34:22.321Z,23.40
2022-10-17T10:37:00.820Z,23.41
2022-10-17T10:39:36.148Z,23.42
2022-10-17T10:42:06.810Z,23.42
2022-10-17T10:44:36.550Z,23.43
2022-10-17T10:47:17.012Z,23.41
2022-10-17T10:49:44.478Z,23.43
2022-10-17T10:52:35.498Z,23.39
2022-10-17T10:55:22.848Z,23.14
2022-10-17T10:57:53.163Z,23.45
2022-10-17T11:00:25.065Z,23.45
2022-10-17T11:03:04.505Z,23.46
2022-10-17T11:05:46.232Z,23.47
2022-10-17T11:08:45.715Z,23.47
2022-10-17T11:11:27.932Z,23.47
2022-10-17T11:14:03.583Z,23.41
2022-10-17T11:16:42.060Z,23.48
2022-10-17T11:19:36.361Z,23.48
2022-10-17T11:22:08.153Z,23.49
2022-10-17T11:24:40.320Z,23.50
2022-10-17T11:27:07.997Z,23.52
2022-10-17T11:29:40.460Z,23.54
2022-10-17T11:32:45.437Z,23.55
2022-10-17T11:35:36.688Z,23.45
2022-10-17T11:38:15.340Z,23.54
2022-10-17T11:40:47.776Z,23.55
2022-10-17T11:43:27.411Z,23.55
2022-10-17T11:46:03.304Z,23.55
2022-10-17T11:48:37.216Z,23.55
2022-10-17T11:54:23.153Z,23.56
2022-10-17T11:57:09.883Z,23.56
2022-10-17T12:00:06.681Z,23.55
2022-10-17T12:02:53.402Z,23.55
2022-10-17T12:05:37.281Z,23.55
2022-10-17T12:08:20.670Z,23.54
2022-10-17T12:10:57.952Z,23.53
2022-10-17T12:13:48.707Z,23.54
2022-10-17T12:16:21.424Z,23.54
2022-10-17T12:19:06.241Z,23.57
2022-10-17T12:22:06.985Z,23.58
2022-10-17T12:24:41.897Z,23.58
2022-10-17T12:27:45.793Z,23.58
2022-10-17T12:30:15.408Z,23.58
2022-10-17T12:33:14.385Z,23.60
2022-10-17T12:35:41.194Z,23.60
2022-10-17T12:38:16.733Z,23.62
2022-10-17T12:40:48.465Z,23.64
2022-10-17T12:43:15.458Z,23.64
2022-10-17T12:45:56.349Z,23.67
2022-10-17T12:48:38.407Z,23.67
2022-10-17T12:51:35.299Z,23.68
2022-10-17T12:54:15.229Z,23.69
2022-10-17T12:56:47.953Z,23.71
2022-10-17T12:59:20.382Z,23.72
2022-10-17T13:01:51.058Z,23.72
2022-10-17T13:04:18.775Z,23.73
2022-10-17T13:06:48.544Z,23.74
2022-10-17T13:09:38.829Z,23.74
2022-10-17T13:12:13.364Z,23.74
2022-10-17T13:14:42.708Z,23.76
2022-10-17T13:17:27.529Z,23.73
2022-10-17T13:19:55.863Z,23.77
2022-10-17T13:24:43.194Z,23.78
2022-10-17T13:27:28.672Z,23.70
2022-10-17T13:29:57.052Z,23.69
2022-10-17T13:32:25.372Z,23.80
2022-10-17T13:35:12.100Z,23.80
2022-10-17T13:37:43.773Z,23.81
2022-10-17T13:40:48.399Z,23.81
2022-10-17T13:43:19.471Z,23.82
2022-10-17T13:45:52.708Z,23.83
2022-10-17T13:48:25.824Z,23.82
2022-10-17T13:51:02.414Z,23.83
2022-10-17T13:53:34.753Z,23.83
2022-10-17T13:59:01.386Z,23.82
2022-10-17T14:01:29.065Z,23.84
2022-10-17T14:04:08.883Z,23.85
2022-10-17T14:06:45.158Z,23.85
2022-10-17T14:09:40.627Z,23.86
2022-10-17T14:12:13.000Z,23.87
2022-10-17T14:15:05.541Z,23.86
2022-10-17T14:17:33.641Z,23.88
2022-10-17T14:20:34.481Z,23.87
2022-10-17T14:23:04.466Z,23.90
2022-10-17T14:25:39.959Z,23.91
2022-10-17T14:28:13.898Z,23.93
2022-10-17T14:30:56.412Z,23.92
2022-10-17T14:33:28.422Z,23.93
2022-10-17T14:35:58.475Z,23.94
2022-10-17T14:38:25.935Z,23.94
2022-10-17T14:43:55.669Z,23.97
2022-10-17T14:46:22.692Z,23.98
2022-10-17T14:48:55.036Z,23.97
2022-10-17T14:51:22.244Z,23.98
2022-10-17T14:54:29.150Z,23.98
2022-10-17T14:56:56.028Z,23.97
2022-10-17T14:59:52.318Z,23.96
2022-10-17T15:02:11.689Z,23.98
2022-10-17T15:04:38.185Z,23.99
2022-10-17T15:07:05.018Z,23.98
2022-10-17T15:09:31.843Z,23.96
2022-10-17T15:12:03.009Z,24.00
2022-10-17T15:14:29.575Z,24.02
2022-10-17T15:16:56.196Z,24.03
2022-10-17T15:19:22.793Z,24.04
2022-10-17T15:21:49.282Z,24.03
2022-10-17T15:24:20.063Z,24.05
2022-10-17T15:26:46.783Z,24.04
2022-10-17T15:29:16.123Z,24.04
2022-10-17T15:31:43.722Z,24.04
2022-10-17T15:34:10.309Z,24.04
2022-10-17T15:36:41.843Z,24.03
2022-10-17T15:39:09.877Z,24.03
2022-10-17T15:41:36.392Z,24.02
2022-10-17T15:44:03.179Z,24.01
2022-10-17T15:46:33.942Z,23.99
2022-10-17T15:49:07.620Z,23.99
2022-10-17T15:51:34.641Z,23.97
2022-10-17T15:54:01.744Z,23.95
2022-10-17T15:56:28.375Z,23.93
2022-10-17T15:58:54.988Z,23.92
2022-10-17T16:01:25.768Z,23.92
2022-10-17T16:03:52.917Z,23.92
2022-10-17T16:06:20.837Z,23.92
2022-10-17T16:08:48.071Z,23.85
2022-10-17T16:11:17.946Z,23.94
2022-10-17T16:13:53.149Z,23.96
2022-10-17T16:16:22.018Z,23.85
2022-10-17T16:18:48.807Z,23.87
2022-10-17T16:21:16.824Z,23.93
2022-10-17T16:23:43.563Z,23.91
2022-10-17T16:26:10.245Z,23.87
2022-10-17T16:28:37.144Z,23.82
2022-10-17T16:31:03.744Z,23.78
2022-10-17T16:33:31.592Z,23.75
2022-10-17T16:35:58.280Z,23.73
2022-10-17T16:38:24.830Z,23.73
2022-10-17T16:40:51.373Z,23.70
2022-10-17T16:43:17.914Z,23.64
2022-10-17T16:45:44.451Z,23.57
2022-10-17T16:48:12.128Z,23.44
2022-10-17T16:50:40.055Z,23.49
2022-10-17T16:53:06.595Z,23.46
2022-10-17T16:55:33.158Z,23.42
2022-10-17T16:58:00.097Z,23.41
2022-10-17T17:00:26.859Z,23.37
2022-10-17T17:02:53.725Z,23.30
2022-10-17T17:05:20.607Z,23.25
2022-10-17T17:07:48.001Z,23.20
2022-10-17T17:10:15.603Z,23.19
2022-10-17T17:12:42.160Z,23.21
2022-10-17T17:15:08.979Z,23.22
2022-10-17T17:17:50.209Z,23.26
2022-10-17T17:20:18.009Z,23.28
2022-10-17T17:22:44.551Z,23.32
2022-10-17T17:25:11.134Z,23.36
2022-10-17T17:27:37.655Z,23.34
2022-10-17T17:30:04.572Z,23.40
2022-10-17T17:32:32.597Z,23.40
2022-10-17T17:34:59.172Z,23.40
2022-10-17T17:37:25.936Z,23.41
2022-10-17T17:39:55.460Z,23.41
2022-10-17T17:42:22.157Z,23.42
2022-10-17T17:44:49.657Z,23.42
2022-10-17T17:47:16.200Z,23.44
2022-10-17T17:49:43.280Z,23.43
2022-10-17T17:52:09.821Z,23.43
2022-10-17T17:54:40.951Z,23.42
2022-10-17T17:57:07.922Z,23.43
2022-10-17T17:59:34.612Z,23.44
2022-10-17T18:02:02.812Z,23.46
2022-10-17T18:04:29.533Z,23.47
2022-10-17T18:06:56.183Z,23.52
2022-10-17T18:09:23.591Z,23.52
2022-10-17T18:11:50.181Z,23.54
2022-10-17T18:14:19.009Z,23.58
2022-10-17T18:16:45.877Z,23.60
2022-10-17T18:19:13.298Z,23.63
2022-10-17T18:21:39.942Z,23.67
2022-10-17T18:24:07.440Z,23.68
2022-10-17T18:26:34.934Z,23.71
2022-10-17T18:29:01.632Z,23.73
2022-10-17T18:31:31.925Z,23.74
2022-10-17T18:34:02.075Z,23.73
2022-10-17T18:36:30.575Z,23.62
2022-10-17T18:38:57.454Z,23.69
2022-10-17T18:41:26.089Z,23.66
2022-10-17T18:43:54.645Z,23.65
2022-10-17T18:46:26.999Z,23.63
2022-10-17T18:48:54.401Z,23.60
2022-10-17T18:51:22.926Z,23.59
2022-10-17T18:53:53.612Z,23.57
2022-10-17T18:56:21.132Z,23.56
2022-10-17T18:58:48.367Z,23.56
2022-10-17T19:01:20.693Z,23.55
2022-10-17T19:03:49.040Z,23.53
2022-10-17T19:06:18.182Z,23.55
2022-10-17T19:08:45.772Z,23.53
2022-10-17T19:11:24.491Z,23.54
2022-10-17T19:13:52.501Z,23.52
2022-10-17T19:16:22.475Z,23.51
2022-10-17T19:18:55.214Z,23.51
2022-10-17T19:21:22.442Z,23.53
2022-10-17T19:23:51.509Z,23.53
2022-10-17T19:26:19.433Z,23.55
2022-10-17T19:28:47.576Z,23.56
2022-10-17T19:31:17.921Z,23.58
2022-10-17T19:33:45.043Z,23.58
2022-10-17T19:36:13.380Z,23.57
2022-10-17T19:38:40.006Z,23.56
2022-10-17T19:41:14.994Z,23.55
2022-10-17T19:43:43.375Z,23.54
2022-10-17T19:46:17.121Z,23.55
2022-10-17T19:48:44.350Z,23.54
2022-10-17T19:51:14.780Z,23.53
2022-10-17T19:53:42.545Z,23.52
2022-10-17T19:56:09.555Z,23.50
2022-10-17T19:58:43.921Z,23.50
2022-10-17T20:01:15.878Z,23.49
2022-10-17T20:03:42.428Z,23.49
2022-10-17T20:06:10.456Z,23.48
2022-10-17T20:08:40.155Z,23.47
2022-10-17T20:11:10.670Z,23.35
2022-10-17T20:13:38.334Z,23.44
2022-10-17T20:16:06.736Z,23.46
2022-10-17T20:18:34.277Z,23.38
2022-10-17T20:21:10.511Z,23.45
2022-10-17T20:23:38.192Z,23.45
2022-10-17T20:26:25.380Z,23.44
2022-10-17T20:28:53.863Z,23.44
2022-10-17T20:31:23.956Z,23.38
2022-10-17T20:33:58.861Z,23.41
2022-10-17T20:36:26.177Z,23.40
2022-10-17T20:38:57.260Z,23.41
2022-10-17T20:41:24.078Z,23.40
2022-10-17T20:43:52.169Z,23.40
2022-10-17T20:46:35.126Z,23.38
2022-10-17T20:49:03.685Z,23.39
2022-10-17T20:51:30.213Z,23.38
2022-10-17T20:56:30.452Z,23.37
2022-10-17T20:58:59.822Z,23.37
2022-10-17T21:01:28.164Z,23.37
2022-10-17T21:03:54.867Z,23.34
2022-10-17T21:06:22.157Z,23.35
2022-10-17T21:11:16.733Z,23.33
2022-10-17T21:13:44.439Z,23.32
2022-10-17T21:16:14.909Z,23.32
2022-10-17T21:18:42.230Z,23.32
2022-10-17T21:21:08.707Z,23.31
2022-10-17T21:23:35.485Z,23.30
2022-10-17T21:26:03.737Z,23.30
2022-10-17T21:28:31.064Z,23.29
2022-10-17T21:31:10.448Z,23.27
2022-10-17T21:33:37.540Z,23.29
2022-10-17T21:36:04.684Z,23.29
2022-10-17T21:38:31.529Z,23.27
2022-10-17T21:40:58.082Z,23.27
2022-10-17T21:43:24.671Z,23.27
2022-10-17T21:45:54.347Z,23.26
2022-10-17T21:48:21.273Z,23.25
2022-10-17T21:50:47.763Z,23.25
2022-10-17T21:53:14.399Z,23.24
2022-10-17T21:55:40.899Z,23.24
2022-10-17T21:58:07.465Z,23.25
2022-10-17T22:00:34.032Z,23.23
2022-10-17T22:03:01.501Z,23.23
2022-10-17T22:05:28.007Z,23.22
2022-10-17T22:07:54.614Z,23.24
2022-10-17T22:10:21.168Z,23.22
2022-10-17T22:12:47.754Z,23.21
2022-10-17T22:17:45.937Z,23.21
2022-10-17T22:20:13.331Z,23.19
2022-10-17T22:22:39.939Z,23.20
2022-10-17T22:25:06.860Z,23.20
2022-10-17T22:27:33.648Z,23.19
2022-10-17T22:30:00.239Z,23.18
2022-10-17T22:32:26.797Z,23.20
2022-10-17T22:34:53.307Z,23.19
2022-10-17T22:37:20.013Z,23.18
2022-10-17T22:39:46.508Z,23.16
2022-10-17T22:42:13.092Z,23.19
2022-10-17T22:44:39.672Z,23.18
2022-10-17T22:47:06.243Z,23.17
2022-10-17T22:49:33.590Z,23.10
2022-10-17T22:52:00.682Z,23.16
2022-10-17T22:54:27.184Z,23.16
2022-10-17T22:56:53.700Z,23.16
2022-10-17T22:59:20.370Z,23.17
2022-10-17T23:01:47.139Z,23.14
2022-10-17T23:04:13.717Z,23.15
2022-10-17T23:06:40.307Z,23.15
2022-10-17T23:09:06.796Z,23.14
2022-10-17T23:11:33.413Z,23.14
2022-10-17T23:13:59.948Z,23.14
2022-10-17T23:16:26.782Z,23.13
2022-10-17T23:18:53.308Z,23.13
2022-10-17T23:21:20.035Z,23.14
2022-10-17T23:23:46.662Z,23.12
2022-10-17T23:26:14.300Z,23.11
2022-10-17T23:28:42.182Z,23.11
2022-10-17T23:31:14.637Z,23.11
2022-10-17T23:33:42.325Z,23.10
2022-10-17T23:36:10.560Z,23.10
2022-10-17T23:38:37.813Z,23.09
2022-10-17T23:41:04.408Z,23.09
2022-10-17T23:43:31.673Z,23.08
2022-10-17T23:45:58.199Z,23.08
2022-10-17T23:48:24.864Z,23.09
2022-10-17T23:50:51.409Z,23.06
2022-10-17T23:53:17.985Z,22.95
2022-10-17T23:55:44.504Z,23.06
2022-10-17T23:58:11.156Z,23.06
